sensor_id;sensor_type;location;lat;lon;timestamp;pressure;altitude;pressure_sealevel;temperature;humidity
55191;BME280;41070;50.360;18.742;2023-05-24T00:02:07;98379.48;;;16.15;97.24
55191;BME280;41070;50.360;18.742;2023-05-24T00:04:39;98380.77;;;16.06;97.66
55191;BME280;41070;50.360;18.742;2023-05-24T00:07:07;98383.52;;;15.95;98.65
55191;BME280;41070;50.360;18.742;2023-05-24T00:09:35;98382.20;;;15.88;98.41
55191;BME280;41070;50.360;18.742;2023-05-24T00:12:02;98381.34;;;15.82;99.07
55191;BME280;41070;50.360;18.742;2023-05-24T00:14:30;98381.63;;;15.75;99.60
55191;BME280;41070;50.360;18.742;2023-05-24T00:16:57;98384.74;;;15.69;99.93
55191;BME280;41070;50.360;18.742;2023-05-24T00:19:25;98383.80;;;15.62;100.00
55191;BME280;41070;50.360;18.742;2023-05-24T00:21:52;98388.19;;;15.57;99.98
55191;BME280;41070;50.360;18.742;2023-05-24T00:24:20;98383.92;;;15.51;100.00
55191;BME280;41070;50.360;18.742;2023-05-24T00:26:48;98386.08;;;15.48;100.00
55191;BME280;41070;50.360;18.742;2023-05-24T00:29:15;98385.05;;;15.44;100.00
55191;BME280;41070;50.360;18.742;2023-05-24T00:31:43;98386.11;;;15.41;100.00
55191;BME280;41070;50.360;18.742;2023-05-24T00:34:10;98385.50;;;15.39;100.00
55191;BME280;41070;50.360;18.742;2023-05-24T00:36:38;98385.95;;;15.38;100.00
55191;BME280;41070;50.360;18.742;2023-05-24T00:39:05;98383.42;;;15.39;100.00
55191;BME280;41070;50.360;18.742;2023-05-24T00:41:33;98385.17;;;15.37;100.00
55191;BME280;41070;50.360;18.742;2023-05-24T00:44:01;98387.27;;;15.39;100.00
55191;BME280;41070;50.360;18.742;2023-05-24T00:46:32;98389.19;;;15.40;100.00
55191;BME280;41070;50.360;18.742;2023-05-24T00:49:00;98391.04;;;15.39;100.00
55191;BME280;41070;50.360;18.742;2023-05-24T00:51:28;98391.48;;;15.36;100.00
55191;BME280;41070;50.360;18.742;2023-05-24T00:53:55;98392.70;;;15.33;100.00
55191;BME280;41070;50.360;18.742;2023-05-24T00:56:23;98399.14;;;15.28;100.00
55191;BME280;41070;50.360;18.742;2023-05-24T00:58:54;98401.30;;;15.28;100.00
55191;BME280;41070;50.360;18.742;2023-05-24T01:01:23;98405.16;;;15.29;100.00
55191;BME280;41070;50.360;18.742;2023-05-24T01:03:52;98404.94;;;15.29;100.00
55191;BME280;41070;50.360;18.742;2023-05-24T01:06:22;98407.08;;;15.27;100.00
55191;BME280;41070;50.360;18.742;2023-05-24T01:14:49;98410.44;;;15.23;100.00
55191;BME280;41070;50.360;18.742;2023-05-24T01:17:30;98415.61;;;15.23;100.00
55191;BME280;41070;50.360;18.742;2023-05-24T01:20:04;98416.67;;;15.22;100.00
55191;BME280;41070;50.360;18.742;2023-05-24T01:25:26;98417.57;;;15.15;100.00
55191;BME280;41070;50.360;18.742;2023-05-24T01:27:59;98418.33;;;15.13;100.00
55191;BME280;41070;50.360;18.742;2023-05-24T01:30:29;98421.33;;;15.12;100.00
55191;BME280;41070;50.360;18.742;2023-05-24T01:32:57;98417.15;;;15.10;100.00
55191;BME280;41070;50.360;18.742;2023-05-24T01:35:24;98417.06;;;15.09;100.00
55191;BME280;41070;50.360;18.742;2023-05-24T01:37:52;98414.78;;;15.12;100.00
55191;BME280;41070;50.360;18.742;2023-05-24T01:40:19;98418.47;;;15.12;100.00
55191;BME280;41070;50.360;18.742;2023-05-24T01:43:03;98418.75;;;15.09;100.00
55191;BME280;41070;50.360;18.742;2023-05-24T01:45:54;98424.83;;;15.06;100.00
55191;BME280;41070;50.360;18.742;2023-05-24T01:48:51;98423.13;;;15.05;100.00
55191;BME280;41070;50.360;18.742;2023-05-24T01:51:24;98423.80;;;15.01;100.00
55191;BME280;41070;50.360;18.742;2023-05-24T01:53:56;98425.69;;;14.98;100.00
55191;BME280;41070;50.360;18.742;2023-05-24T01:56:26;98429.07;;;14.96;100.00
55191;BME280;41070;50.360;18.742;2023-05-24T01:58:58;98435.31;;;14.97;100.00
55191;BME280;41070;50.360;18.742;2023-05-24T02:01:26;98437.69;;;14.95;100.00
55191;BME280;41070;50.360;18.742;2023-05-24T02:03:54;98434.52;;;14.94;100.00
55191;BME280;41070;50.360;18.742;2023-05-24T02:06:22;98436.27;;;14.91;100.00
55191;BME280;41070;50.360;18.742;2023-05-24T02:08:49;98441.34;;;14.89;100.00
55191;BME280;41070;50.360;18.742;2023-05-24T02:11:17;98435.70;;;14.87;100.00
55191;BME280;41070;50.360;18.742;2023-05-24T02:13:45;98433.09;;;14.86;100.00
55191;BME280;41070;50.360;18.742;2023-05-24T02:16:12;98435.02;;;14.88;100.00
55191;BME280;41070;50.360;18.742;2023-05-24T02:18:41;98438.33;;;14.89;100.00
55191;BME280;41070;50.360;18.742;2023-05-24T02:21:09;98443.81;;;14.91;100.00
55191;BME280;41070;50.360;18.742;2023-05-24T02:23:38;98442.65;;;14.89;100.00
55191;BME280;41070;50.360;18.742;2023-05-24T02:26:05;98442.35;;;14.91;100.00
55191;BME280;41070;50.360;18.742;2023-05-24T02:28:36;98444.84;;;14.93;100.00
55191;BME280;41070;50.360;18.742;2023-05-24T02:31:04;98446.05;;;14.92;100.00
55191;BME280;41070;50.360;18.742;2023-05-24T02:33:32;98443.30;;;14.93;100.00
55191;BME280;41070;50.360;18.742;2023-05-24T02:36:00;98446.77;;;14.94;100.00
55191;BME280;41070;50.360;18.742;2023-05-24T02:38:28;98445.07;;;14.95;100.00
55191;BME280;41070;50.360;18.742;2023-05-24T02:40:55;98447.59;;;14.91;100.00
55191;BME280;41070;50.360;18.742;2023-05-24T02:43:23;98445.73;;;14.89;100.00
55191;BME280;41070;50.360;18.742;2023-05-24T02:45:50;98448.64;;;14.88;100.00
55191;BME280;41070;50.360;18.742;2023-05-24T02:48:18;98447.48;;;14.88;100.00
55191;BME280;41070;50.360;18.742;2023-05-24T02:50:45;98452.02;;;14.87;100.00
55191;BME280;41070;50.360;18.742;2023-05-24T02:53:13;98451.77;;;14.85;100.00
55191;BME280;41070;50.360;18.742;2023-05-24T02:55:41;98452.46;;;14.84;100.00
55191;BME280;41070;50.360;18.742;2023-05-24T02:58:09;98449.45;;;14.82;100.00
55191;BME280;41070;50.360;18.742;2023-05-24T03:00:37;98447.36;;;14.80;100.00
55191;BME280;41070;50.360;18.742;2023-05-24T03:03:04;98449.36;;;14.82;100.00
55191;BME280;41070;50.360;18.742;2023-05-24T03:05:32;98450.39;;;14.83;100.00
55191;BME280;41070;50.360;18.742;2023-05-24T03:08:01;98455.61;;;14.84;100.00
55191;BME280;41070;50.360;18.742;2023-05-24T03:10:29;98458.13;;;14.80;100.00
55191;BME280;41070;50.360;18.742;2023-05-24T03:12:56;98460.95;;;14.77;100.00
55191;BME280;41070;50.360;18.742;2023-05-24T03:15:24;98461.33;;;14.76;100.00
55191;BME280;41070;50.360;18.742;2023-05-24T03:17:51;98460.01;;;14.74;100.00
55191;BME280;41070;50.360;18.742;2023-05-24T03:20:19;98460.77;;;14.72;100.00
55191;BME280;41070;50.360;18.742;2023-05-24T03:22:48;98461.31;;;14.74;100.00
55191;BME280;41070;50.360;18.742;2023-05-24T03:25:16;98465.44;;;14.71;100.00
55191;BME280;41070;50.360;18.742;2023-05-24T03:27:43;98470.73;;;14.70;100.00
55191;BME280;41070;50.360;18.742;2023-05-24T03:30:11;98470.02;;;14.68;100.00
55191;BME280;41070;50.360;18.742;2023-05-24T03:32:39;98472.99;;;14.64;100.00
55191;BME280;41070;50.360;18.742;2023-05-24T03:35:06;98474.05;;;14.61;100.00
55191;BME280;41070;50.360;18.742;2023-05-24T03:37:37;98477.13;;;14.59;100.00
55191;BME280;41070;50.360;18.742;2023-05-24T03:40:05;98482.65;;;14.59;100.00
55191;BME280;41070;50.360;18.742;2023-05-24T03:42:34;98485.50;;;14.54;100.00
55191;BME280;41070;50.360;18.742;2023-05-24T03:45:02;98493.08;;;14.42;100.00
55191;BME280;41070;50.360;18.742;2023-05-24T03:47:30;98491.40;;;14.28;100.00
55191;BME280;41070;50.360;18.742;2023-05-24T03:49:57;98492.11;;;14.16;100.00
55191;BME280;41070;50.360;18.742;2023-05-24T03:52:25;98496.06;;;14.05;100.00
55191;BME280;41070;50.360;18.742;2023-05-24T03:54:53;98501.48;;;14.00;100.00
55191;BME280;41070;50.360;18.742;2023-05-24T03:57:23;98502.19;;;13.89;100.00
55191;BME280;41070;50.360;18.742;2023-05-24T04:00:06;98505.13;;;13.84;100.00
55191;BME280;41070;50.360;18.742;2023-05-24T04:02:33;98511.87;;;13.76;100.00
55191;BME280;41070;50.360;18.742;2023-05-24T04:05:04;98510.21;;;13.72;100.00
55191;BME280;41070;50.360;18.742;2023-05-24T04:07:35;98515.63;;;13.70;100.00
55191;BME280;41070;50.360;18.742;2023-05-24T04:10:04;98515.88;;;13.66;100.00
55191;BME280;41070;50.360;18.742;2023-05-24T04:12:33;98517.45;;;13.56;100.00
55191;BME280;41070;50.360;18.742;2023-05-24T04:15:00;98516.95;;;13.54;100.00
55191;BME280;41070;50.360;18.742;2023-05-24T04:17:29;98524.29;;;13.51;100.00
55191;BME280;41070;50.360;18.742;2023-05-24T04:20:00;98530.61;;;13.42;100.00
55191;BME280;41070;50.360;18.742;2023-05-24T04:22:29;98532.89;;;13.35;100.00
55191;BME280;41070;50.360;18.742;2023-05-24T04:24:56;98540.74;;;13.31;100.00
55191;BME280;41070;50.360;18.742;2023-05-24T04:27:24;98546.10;;;13.28;100.00
55191;BME280;41070;50.360;18.742;2023-05-24T04:29:52;98550.23;;;13.22;100.00
55191;BME280;41070;50.360;18.742;2023-05-24T04:32:20;98553.14;;;13.15;100.00
55191;BME280;41070;50.360;18.742;2023-05-24T04:34:48;98558.25;;;13.09;100.00
55191;BME280;41070;50.360;18.742;2023-05-24T04:37:17;98557.19;;;13.05;100.00
55191;BME280;41070;50.360;18.742;2023-05-24T04:39:45;98561.55;;;12.99;100.00
55191;BME280;41070;50.360;18.742;2023-05-24T04:42:12;98559.35;;;12.96;100.00
55191;BME280;41070;50.360;18.742;2023-05-24T04:44:40;98563.89;;;12.97;100.00
55191;BME280;41070;50.360;18.742;2023-05-24T04:47:10;98567.95;;;12.92;100.00
55191;BME280;41070;50.360;18.742;2023-05-24T04:49:38;98568.47;;;12.87;100.00
55191;BME280;41070;50.360;18.742;2023-05-24T04:52:06;98571.08;;;12.82;100.00
55191;BME280;41070;50.360;18.742;2023-05-24T04:54:33;98573.64;;;12.75;100.00
55191;BME280;41070;50.360;18.742;2023-05-24T04:57:01;98575.45;;;12.64;100.00
55191;BME280;41070;50.360;18.742;2023-05-24T04:59:28;98574.55;;;12.57;100.00
55191;BME280;41070;50.360;18.742;2023-05-24T05:01:57;98579.90;;;12.52;100.00
55191;BME280;41070;50.360;18.742;2023-05-24T05:04:24;98580.05;;;12.52;100.00
55191;BME280;41070;50.360;18.742;2023-05-24T05:06:52;98585.52;;;12.50;100.00
55191;BME280;41070;50.360;18.742;2023-05-24T05:09:20;98597.88;;;12.42;100.00
55191;BME280;41070;50.360;18.742;2023-05-24T05:11:49;98598.59;;;12.31;100.00
55191;BME280;41070;50.360;18.742;2023-05-24T05:14:17;98605.46;;;12.27;100.00
55191;BME280;41070;50.360;18.742;2023-05-24T05:16:44;98607.73;;;12.25;100.00
55191;BME280;41070;50.360;18.742;2023-05-24T05:19:12;98614.15;;;12.28;100.00
55191;BME280;41070;50.360;18.742;2023-05-24T05:21:39;98618.95;;;12.26;100.00
55191;BME280;41070;50.360;18.742;2023-05-24T05:24:07;98623.63;;;12.26;100.00
55191;BME280;41070;50.360;18.742;2023-05-24T05:26:34;98626.02;;;12.24;100.00
55191;BME280;41070;50.360;18.742;2023-05-24T05:29:02;98629.43;;;12.21;100.00
55191;BME280;41070;50.360;18.742;2023-05-24T05:31:29;98637.45;;;12.16;100.00
55191;BME280;41070;50.360;18.742;2023-05-24T05:33:57;98632.23;;;12.13;100.00
55191;BME280;41070;50.360;18.742;2023-05-24T05:36:24;98632.44;;;12.18;100.00
55191;BME280;41070;50.360;18.742;2023-05-24T05:38:52;98641.95;;;12.19;100.00
55191;BME280;41070;50.360;18.742;2023-05-24T05:41:20;98643.05;;;12.13;100.00
55191;BME280;41070;50.360;18.742;2023-05-24T05:43:48;98645.24;;;12.08;100.00
55191;BME280;41070;50.360;18.742;2023-05-24T05:46:16;98653.56;;;12.00;100.00
55191;BME280;41070;50.360;18.742;2023-05-24T05:48:46;98652.58;;;11.96;100.00
55191;BME280;41070;50.360;18.742;2023-05-24T05:51:13;98659.45;;;11.95;100.00
55191;BME280;41070;50.360;18.742;2023-05-24T05:53:41;98659.14;;;11.92;100.00
55191;BME280;41070;50.360;18.742;2023-05-24T05:56:08;98660.47;;;11.90;100.00
55191;BME280;41070;50.360;18.742;2023-05-24T05:58:36;98661.25;;;11.91;100.00
55191;BME280;41070;50.360;18.742;2023-05-24T06:01:04;98668.61;;;11.91;100.00
55191;BME280;41070;50.360;18.742;2023-05-24T06:03:32;98667.85;;;11.88;100.00
55191;BME280;41070;50.360;18.742;2023-05-24T06:06:00;98666.54;;;11.89;100.00
55191;BME280;41070;50.360;18.742;2023-05-24T06:08:27;98668.73;;;11.93;100.00
55191;BME280;41070;50.360;18.742;2023-05-24T06:11:00;98668.98;;;11.94;100.00
55191;BME280;41070;50.360;18.742;2023-05-24T06:13:27;98673.67;;;11.98;100.00
55191;BME280;41070;50.360;18.742;2023-05-24T06:15:56;98679.39;;;12.03;100.00
55191;BME280;41070;50.360;18.742;2023-05-24T06:18:25;98680.77;;;12.04;100.00
55191;BME280;41070;50.360;18.742;2023-05-24T06:20:55;98683.54;;;12.03;100.00
55191;BME280;41070;50.360;18.742;2023-05-24T06:23:23;98695.06;;;12.05;100.00
55191;BME280;41070;50.360;18.742;2023-05-24T06:25:50;98697.13;;;12.09;100.00
55191;BME280;41070;50.360;18.742;2023-05-24T06:28:18;98699.42;;;12.12;100.00
55191;BME280;41070;50.360;18.742;2023-05-24T06:30:45;98705.30;;;12.11;100.00
55191;BME280;41070;50.360;18.742;2023-05-24T06:33:13;98709.35;;;12.10;100.00
55191;BME280;41070;50.360;18.742;2023-05-24T06:35:41;98711.98;;;12.11;100.00
55191;BME280;41070;50.360;18.742;2023-05-24T06:38:09;98713.52;;;12.11;100.00
55191;BME280;41070;50.360;18.742;2023-05-24T06:40:36;98714.13;;;12.15;100.00
55191;BME280;41070;50.360;18.742;2023-05-24T06:43:04;98721.92;;;12.18;100.00
55191;BME280;41070;50.360;18.742;2023-05-24T06:45:32;98718.41;;;12.18;99.92
55191;BME280;41070;50.360;18.742;2023-05-24T06:48:00;98720.58;;;12.22;99.98
55191;BME280;41070;50.360;18.742;2023-05-24T06:50:28;98719.84;;;12.28;99.93
55191;BME280;41070;50.360;18.742;2023-05-24T06:52:55;98717.19;;;12.32;99.64
55191;BME280;41070;50.360;18.742;2023-05-24T06:55:23;98717.64;;;12.39;99.74
55191;BME280;41070;50.360;18.742;2023-05-24T06:57:50;98723.57;;;12.44;99.54
55191;BME280;41070;50.360;18.742;2023-05-24T07:00:18;98728.84;;;12.47;99.11
55191;BME280;41070;50.360;18.742;2023-05-24T07:02:46;98734.10;;;12.49;99.13
55191;BME280;41070;50.360;18.742;2023-05-24T07:05:15;98737.20;;;12.47;98.66
55191;BME280;41070;50.360;18.742;2023-05-24T07:07:42;98739.87;;;12.46;98.79
55191;BME280;41070;50.360;18.742;2023-05-24T07:10:10;98741.20;;;12.47;98.53
55191;BME280;41070;50.360;18.742;2023-05-24T07:12:39;98747.16;;;12.43;98.29
55191;BME280;41070;50.360;18.742;2023-05-24T07:15:07;98749.00;;;12.42;98.14
55191;BME280;41070;50.360;18.742;2023-05-24T07:17:35;98755.80;;;12.46;98.36
55191;BME280;41070;50.360;18.742;2023-05-24T07:20:03;98759.71;;;12.49;97.81
55191;BME280;41070;50.360;18.742;2023-05-24T07:22:37;98766.54;;;12.42;97.23
55191;BME280;41070;50.360;18.742;2023-05-24T07:25:06;98767.13;;;12.38;97.67
55191;BME280;41070;50.360;18.742;2023-05-24T07:27:37;98772.60;;;12.39;97.81
55191;BME280;41070;50.360;18.742;2023-05-24T07:30:17;98774.27;;;12.35;97.63
55191;BME280;41070;50.360;18.742;2023-05-24T07:32:45;98776.88;;;12.30;98.02
55191;BME280;41070;50.360;18.742;2023-05-24T07:35:33;98782.23;;;12.27;97.68
55191;BME280;41070;50.360;18.742;2023-05-24T07:38:02;98783.46;;;12.17;97.18
55191;BME280;41070;50.360;18.742;2023-05-24T07:40:30;98791.22;;;12.09;97.55
55191;BME280;41070;50.360;18.742;2023-05-24T07:43:00;98794.13;;;11.99;97.50
55191;BME280;41070;50.360;18.742;2023-05-24T07:45:33;98796.52;;;11.96;98.02
55191;BME280;41070;50.360;18.742;2023-05-24T07:48:04;98802.02;;;11.96;97.83
55191;BME280;41070;50.360;18.742;2023-05-24T07:50:33;98798.91;;;11.97;97.86
55191;BME280;41070;50.360;18.742;2023-05-24T07:53:04;98798.90;;;11.97;97.76
55191;BME280;41070;50.360;18.742;2023-05-24T07:55:40;98799.03;;;11.98;97.65
55191;BME280;41070;50.360;18.742;2023-05-24T07:58:12;98801.84;;;12.08;98.04
55191;BME280;41070;50.360;18.742;2023-05-24T08:00:43;98807.30;;;12.11;97.29
55191;BME280;41070;50.360;18.742;2023-05-24T08:03:18;98805.98;;;12.10;97.23
55191;BME280;41070;50.360;18.742;2023-05-24T08:05:58;98810.37;;;12.12;97.18
55191;BME280;41070;50.360;18.742;2023-05-24T08:08:29;98812.07;;;12.05;96.54
55191;BME280;41070;50.360;18.742;2023-05-24T08:10:57;98810.17;;;12.00;96.70
55191;BME280;41070;50.360;18.742;2023-05-24T08:13:26;98809.14;;;12.01;96.98
55191;BME280;41070;50.360;18.742;2023-05-24T08:15:55;98813.81;;;12.05;96.84
55191;BME280;41070;50.360;18.742;2023-05-24T08:18:23;98823.70;;;12.08;96.75
55191;BME280;41070;50.360;18.742;2023-05-24T08:20:55;98829.73;;;12.10;96.51
55191;BME280;41070;50.360;18.742;2023-05-24T08:23:23;98832.41;;;12.07;95.88
55191;BME280;41070;50.360;18.742;2023-05-24T08:25:50;98836.27;;;12.05;96.17
55191;BME280;41070;50.360;18.742;2023-05-24T08:28:27;98841.36;;;12.09;96.19
55191;BME280;41070;50.360;18.742;2023-05-24T08:30:55;98846.91;;;12.11;95.92
55191;BME280;41070;50.360;18.742;2023-05-24T08:33:24;98850.90;;;12.05;94.79
55191;BME280;41070;50.360;18.742;2023-05-24T08:35:51;98852.34;;;11.95;94.92
55191;BME280;41070;50.360;18.742;2023-05-24T08:38:19;98860.83;;;11.91;94.85
55191;BME280;41070;50.360;18.742;2023-05-24T08:40:47;98857.04;;;11.90;94.94
55191;BME280;41070;50.360;18.742;2023-05-24T08:43:15;98859.11;;;11.96;94.96
55191;BME280;41070;50.360;18.742;2023-05-24T08:45:44;98864.49;;;11.97;94.37
55191;BME280;41070;50.360;18.742;2023-05-24T08:48:12;98858.59;;;12.00;94.79
55191;BME280;41070;50.360;18.742;2023-05-24T08:50:41;98858.99;;;12.10;94.84
55191;BME280;41070;50.360;18.742;2023-05-24T08:53:10;98863.77;;;12.17;94.78
55191;BME280;41070;50.360;18.742;2023-05-24T08:55:39;98861.33;;;12.20;95.07
55191;BME280;41070;50.360;18.742;2023-05-24T08:58:09;98863.23;;;12.29;95.05
55191;BME280;41070;50.360;18.742;2023-05-24T09:00:37;98864.98;;;12.32;94.84
55191;BME280;41070;50.360;18.742;2023-05-24T09:03:05;98869.93;;;12.34;94.93
55191;BME280;41070;50.360;18.742;2023-05-24T09:05:36;98869.05;;;12.30;94.16
55191;BME280;41070;50.360;18.742;2023-05-24T09:08:04;98869.92;;;12.24;94.40
55191;BME280;41070;50.360;18.742;2023-05-24T09:10:32;98877.33;;;12.20;94.38
55191;BME280;41070;50.360;18.742;2023-05-24T09:13:03;98889.38;;;12.14;94.18
55191;BME280;41070;50.360;18.742;2023-05-24T09:15:31;98891.08;;;12.09;93.97
55191;BME280;41070;50.360;18.742;2023-05-24T09:17:59;98894.73;;;12.06;94.07
55191;BME280;41070;50.360;18.742;2023-05-24T09:20:30;98898.46;;;12.01;93.71
55191;BME280;41070;50.360;18.742;2023-05-24T09:22:57;98900.39;;;11.98;93.65
55191;BME280;41070;50.360;18.742;2023-05-24T09:25:26;98900.54;;;11.92;93.53
55191;BME280;41070;50.360;18.742;2023-05-24T09:27:54;98901.27;;;11.92;93.94
55191;BME280;41070;50.360;18.742;2023-05-24T09:30:22;98898.62;;;11.95;93.96
55191;BME280;41070;50.360;18.742;2023-05-24T09:32:53;98898.06;;;12.00;93.96
55191;BME280;41070;50.360;18.742;2023-05-24T09:35:22;98900.82;;;12.06;93.80
55191;BME280;41070;50.360;18.742;2023-05-24T09:37:53;98906.30;;;12.17;93.87
55191;BME280;41070;50.360;18.742;2023-05-24T09:40:22;98904.03;;;12.27;93.68
55191;BME280;41070;50.360;18.742;2023-05-24T09:43:04;98904.47;;;12.39;93.16
55191;BME280;41070;50.360;18.742;2023-05-24T09:45:37;98903.50;;;12.49;92.46
55191;BME280;41070;50.360;18.742;2023-05-24T09:48:12;98898.64;;;12.58;91.58
55191;BME280;41070;50.360;18.742;2023-05-24T09:50:43;98897.77;;;12.70;91.42
55191;BME280;41070;50.360;18.742;2023-05-24T09:53:16;98896.25;;;12.88;91.78
55191;BME280;41070;50.360;18.742;2023-05-24T09:55:45;98907.33;;;13.03;89.99
55191;BME280;41070;50.360;18.742;2023-05-24T09:58:15;98906.91;;;13.16;89.94
55191;BME280;41070;50.360;18.742;2023-05-24T10:00:44;98913.84;;;13.20;89.63
55191;BME280;41070;50.360;18.742;2023-05-24T10:03:12;98915.84;;;13.25;89.79
55191;BME280;41070;50.360;18.742;2023-05-24T10:05:43;98916.55;;;13.29;89.10
55191;BME280;41070;50.360;18.742;2023-05-24T10:08:14;98917.73;;;13.27;88.56
55191;BME280;41070;50.360;18.742;2023-05-24T10:10:46;98920.03;;;13.26;88.97
55191;BME280;41070;50.360;18.742;2023-05-24T10:13:17;98924.63;;;13.29;88.78
55191;BME280;41070;50.360;18.742;2023-05-24T10:15:47;98926.40;;;13.36;89.11
55191;BME280;41070;50.360;18.742;2023-05-24T10:18:15;98926.15;;;13.43;88.58
55191;BME280;41070;50.360;18.742;2023-05-24T10:20:43;98934.60;;;13.39;87.04
55191;BME280;41070;50.360;18.742;2023-05-24T10:23:14;98925.46;;;13.39;87.68
55191;BME280;41070;50.360;18.742;2023-05-24T10:25:50;98923.50;;;13.44;87.75
55191;BME280;41070;50.360;18.742;2023-05-24T10:28:22;98920.59;;;13.49;87.69
55191;BME280;41070;50.360;18.742;2023-05-24T10:31:06;98923.98;;;13.53;88.15
55191;BME280;41070;50.360;18.742;2023-05-24T10:33:39;98927.10;;;13.59;87.87
55191;BME280;41070;50.360;18.742;2023-05-24T10:36:11;98926.85;;;13.67;87.83
55191;BME280;41070;50.360;18.742;2023-05-24T10:38:46;98925.76;;;13.69;87.46
55191;BME280;41070;50.360;18.742;2023-05-24T10:41:13;98921.85;;;13.77;87.89
55191;BME280;41070;50.360;18.742;2023-05-24T10:43:45;98923.14;;;13.86;87.01
55191;BME280;41070;50.360;18.742;2023-05-24T10:46:14;98924.65;;;13.96;87.24
55191;BME280;41070;50.360;18.742;2023-05-24T10:48:44;98929.02;;;14.04;86.55
55191;BME280;41070;50.360;18.742;2023-05-24T10:51:35;98933.72;;;14.00;84.93
55191;BME280;41070;50.360;18.742;2023-05-24T10:54:32;98929.80;;;14.01;85.02
55191;BME280;41070;50.360;18.742;2023-05-24T10:57:01;98929.02;;;14.08;85.03
55191;BME280;41070;50.360;18.742;2023-05-24T10:59:35;98932.98;;;14.10;84.78
55191;BME280;41070;50.360;18.742;2023-05-24T11:02:09;98929.70;;;14.16;84.78
55191;BME280;41070;50.360;18.742;2023-05-24T11:04:40;98932.46;;;14.20;84.93
55191;BME280;41070;50.360;18.742;2023-05-24T11:07:09;98935.55;;;14.25;84.68
55191;BME280;41070;50.360;18.742;2023-05-24T11:09:38;98937.34;;;14.23;84.55
55191;BME280;41070;50.360;18.742;2023-05-24T11:12:15;98931.73;;;14.22;84.39
55191;BME280;41070;50.360;18.742;2023-05-24T11:14:48;98935.52;;;14.24;84.50
55191;BME280;41070;50.360;18.742;2023-05-24T11:17:22;98939.83;;;14.28;84.25
55191;BME280;41070;50.360;18.742;2023-05-24T11:19:53;98936.73;;;14.36;84.21
55191;BME280;41070;50.360;18.742;2023-05-24T11:22:24;98940.10;;;14.49;84.28
55191;BME280;41070;50.360;18.742;2023-05-24T11:24:53;98934.39;;;14.56;83.40
55191;BME280;41070;50.360;18.742;2023-05-24T11:27:23;98937.43;;;14.63;83.60
55191;BME280;41070;50.360;18.742;2023-05-24T11:29:54;98937.58;;;14.67;83.39
55191;BME280;41070;50.360;18.742;2023-05-24T11:32:24;98938.73;;;14.68;83.35
55191;BME280;41070;50.360;18.742;2023-05-24T11:34:53;98942.75;;;14.69;83.32
55191;BME280;41070;50.360;18.742;2023-05-24T11:37:22;98948.09;;;14.65;83.63
55191;BME280;41070;50.360;18.742;2023-05-24T11:39:50;98949.42;;;14.67;83.85
55191;BME280;41070;50.360;18.742;2023-05-24T11:42:23;98943.98;;;14.73;83.27
55191;BME280;41070;50.360;18.742;2023-05-24T11:44:53;98936.25;;;14.76;82.78
55191;BME280;41070;50.360;18.742;2023-05-24T11:47:27;98942.15;;;14.84;82.87
55191;BME280;41070;50.360;18.742;2023-05-24T11:49:54;98938.56;;;14.87;81.45
55191;BME280;41070;50.360;18.742;2023-05-24T11:52:22;98938.48;;;14.96;82.07
55191;BME280;41070;50.360;18.742;2023-05-24T11:54:50;98939.96;;;15.04;82.04
55191;BME280;41070;50.360;18.742;2023-05-24T11:57:25;98938.29;;;15.05;82.16
55191;BME280;41070;50.360;18.742;2023-05-24T11:59:55;98937.48;;;14.97;81.04
55191;BME280;41070;50.360;18.742;2023-05-24T12:02:35;98936.54;;;14.90;80.82
55191;BME280;41070;50.360;18.742;2023-05-24T12:05:09;98933.03;;;14.92;80.98
55191;BME280;41070;50.360;18.742;2023-05-24T12:07:39;98930.09;;;15.01;81.15
55191;BME280;41070;50.360;18.742;2023-05-24T12:10:07;98929.11;;;15.15;80.77
55191;BME280;41070;50.360;18.742;2023-05-24T12:12:42;98931.16;;;15.24;80.37
55191;BME280;41070;50.360;18.742;2023-05-24T12:15:10;98935.92;;;15.23;79.85
55191;BME280;41070;50.360;18.742;2023-05-24T12:17:37;98933.13;;;15.21;80.32
55191;BME280;41070;50.360;18.742;2023-05-24T12:20:05;98932.93;;;15.24;80.86
55191;BME280;41070;50.360;18.742;2023-05-24T12:22:34;98932.63;;;15.30;80.74
55191;BME280;41070;50.360;18.742;2023-05-24T12:25:02;98929.95;;;15.31;79.83
55191;BME280;41070;50.360;18.742;2023-05-24T12:27:30;98933.01;;;15.35;80.74
55191;BME280;41070;50.360;18.742;2023-05-24T12:30:07;98936.16;;;15.41;80.55
55191;BME280;41070;50.360;18.742;2023-05-24T12:32:35;98938.64;;;15.54;80.76
55191;BME280;41070;50.360;18.742;2023-05-24T12:35:02;98937.74;;;15.63;80.32
55191;BME280;41070;50.360;18.742;2023-05-24T12:37:30;98945.85;;;15.71;80.87
55191;BME280;41070;50.360;18.742;2023-05-24T12:39:59;98951.17;;;15.71;79.77
55191;BME280;41070;50.360;18.742;2023-05-24T12:42:31;98951.17;;;15.58;78.95
55191;BME280;41070;50.360;18.742;2023-05-24T12:44:58;98953.58;;;15.48;79.57
55191;BME280;41070;50.360;18.742;2023-05-24T12:47:26;98954.73;;;15.42;79.47
55191;BME280;41070;50.360;18.742;2023-05-24T12:49:53;98947.42;;;15.30;79.27
55191;BME280;41070;50.360;18.742;2023-05-24T12:52:21;98946.60;;;15.26;79.78
55191;BME280;41070;50.360;18.742;2023-05-24T12:54:49;98948.07;;;15.21;79.91
55191;BME280;41070;50.360;18.742;2023-05-24T12:57:16;98946.54;;;15.16;80.68
55191;BME280;41070;50.360;18.742;2023-05-24T12:59:44;98950.48;;;15.12;80.08
55191;BME280;41070;50.360;18.742;2023-05-24T13:02:12;98948.13;;;14.98;79.77
55191;BME280;41070;50.360;18.742;2023-05-24T13:04:40;98954.30;;;14.99;80.70
55191;BME280;41070;50.360;18.742;2023-05-24T13:07:08;98952.45;;;15.04;80.08